createdAt,value
2018-09-22T00:02:24.914Z,52.90
2018-09-22T00:04:53.474Z,53.00
2018-09-22T00:07:22.027Z,53.00
2018-09-22T00:09:50.534Z,53.10
2018-09-22T00:12:19.013Z,53.20
2018-09-22T00:14:47.536Z,53.60
2018-09-22T00:17:16.034Z,53.40
2018-09-22T00:19:44.606Z,53.60
2018-09-22T00:22:13.099Z,53.90
2018-09-22T00:24:41.630Z,54.00
2018-09-22T00:27:10.147Z,54.30
2018-09-22T00:29:38.641Z,54.20
2018-09-22T00:32:07.232Z,54.60
2018-09-22T00:34:35.738Z,54.90
2018-09-22T00:37:04.253Z,55.10
2018-09-22T00:39:32.786Z,55.50
2018-09-22T00:42:01.282Z,55.10
2018-09-22T00:44:29.795Z,55.30
2018-09-22T00:46:58.318Z,55.30
2018-09-22T00:49:26.847Z,55.30
2018-09-22T00:51:55.362Z,55.40
2018-09-22T00:54:23.907Z,55.60
2018-09-22T00:56:52.378Z,55.50
2018-09-22T00:59:20.911Z,55.60
2018-09-22T01:01:49.444Z,55.90
2018-09-22T01:04:17.971Z,55.90
2018-09-22T01:06:46.485Z,55.80
2018-09-22T01:09:15.013Z,55.80
2018-09-22T01:11:43.539Z,55.80
2018-09-22T01:14:12.123Z,55.80
2018-09-22T01:16:40.630Z,56.00
2018-09-22T01:19:09.158Z,55.70
2018-09-22T01:21:37.679Z,55.60
2018-09-22T01:24:06.264Z,55.60
2018-09-22T01:26:34.801Z,55.40
2018-09-22T01:29:03.314Z,56.00
2018-09-22T01:31:31.877Z,55.90
2018-09-22T01:34:00.393Z,55.50
2018-09-22T01:36:28.961Z,56.10
2018-09-22T01:38:57.481Z,55.30
2018-09-22T01:41:26.054Z,55.10
2018-09-22T01:43:54.551Z,55.30
2018-09-22T01:46:23.091Z,55.90
2018-09-22T01:48:51.637Z,55.20
2018-09-22T01:51:20.167Z,55.40
2018-09-22T01:53:48.672Z,55.00
2018-09-22T01:56:17.193Z,55.80
2018-09-22T01:58:45.742Z,56.00
2018-09-22T02:01:14.326Z,56.40
2018-09-22T02:03:42.828Z,56.50
2018-09-22T02:06:11.326Z,56.60
2018-09-22T02:08:39.821Z,56.60
2018-09-22T02:11:08.405Z,56.80
2018-09-22T02:13:36.912Z,56.60
2018-09-22T02:16:05.439Z,56.60
2018-09-22T02:18:33.939Z,56.90
2018-09-22T02:21:02.527Z,57.40
2018-09-22T02:23:31.032Z,57.80
2018-09-22T02:25:59.622Z,57.70
2018-09-22T02:28:28.126Z,57.80
2018-09-22T02:30:56.667Z,58.20
2018-09-22T02:33:25.212Z,57.60
2018-09-22T02:35:53.798Z,57.30
2018-09-22T02:38:22.310Z,57.80
2018-09-22T02:40:50.842Z,57.70
2018-09-22T02:43:19.347Z,57.70
2018-09-22T02:45:48.930Z,57.80
2018-09-22T02:48:17.433Z,57.50
2018-09-22T02:50:45.973Z,57.80
2018-09-22T02:53:14.472Z,57.80
2018-09-22T02:55:42.988Z,58.20
2018-09-22T02:58:11.491Z,58.40
2018-09-22T03:00:40.026Z,59.10
2018-09-22T03:03:08.522Z,59.30
2018-09-22T03:05:37.046Z,59.20
2018-09-22T03:08:05.618Z,59.20
2018-09-22T03:10:34.136Z,59.30
2018-09-22T03:13:02.649Z,59.90
2018-09-22T03:15:31.206Z,60.40
2018-09-22T03:17:59.685Z,60.20
2018-09-22T03:20:28.223Z,60.70
2018-09-22T03:22:56.739Z,60.80
2018-09-22T03:25:25.309Z,61.20
2018-09-22T03:27:53.831Z,61.10
2018-09-22T03:30:22.359Z,61.50
2018-09-22T03:32:50.909Z,62.10
2018-09-22T03:35:19.452Z,62.30
2018-09-22T03:37:47.958Z,61.80
2018-09-22T03:40:16.479Z,60.90
2018-09-22T03:42:44.959Z,60.70
2018-09-22T03:45:13.493Z,60.80
2018-09-22T03:47:41.982Z,60.50
2018-09-22T03:50:10.518Z,60.30
2018-09-22T03:52:38.998Z,60.60
2018-09-22T03:55:07.571Z,60.50
2018-09-22T03:57:36.056Z,60.30
2018-09-22T04:00:04.888Z,60.30
2018-09-22T04:02:33.394Z,60.00
2018-09-22T04:05:01.931Z,60.00
2018-09-22T04:07:30.439Z,60.30
2018-09-22T04:09:58.952Z,60.70
2018-09-22T04:12:27.521Z,59.90
2018-09-22T04:14:56.077Z,59.80
2018-09-22T04:17:24.587Z,59.90
2018-09-22T04:19:53.253Z,60.70
2018-09-22T04:22:21.758Z,61.40
2018-09-22T04:24:50.247Z,61.30
2018-09-22T04:27:18.787Z,61.50
2018-09-22T04:29:47.296Z,62.40
2018-09-22T04:32:15.878Z,62.10
2018-09-22T04:34:44.390Z,62.20
2018-09-22T04:37:12.926Z,62.40
2018-09-22T04:39:41.431Z,63.50
2018-09-22T04:42:09.942Z,63.60
2018-09-22T04:44:38.439Z,64.00
2018-09-22T04:47:06.955Z,64.70
2018-09-22T04:49:35.446Z,65.70
2018-09-22T04:52:04.000Z,66.10
2018-09-22T04:54:32.502Z,66.70
2018-09-22T04:57:01.007Z,66.80
2018-09-22T04:59:29.482Z,66.60
2018-09-22T05:01:57.996Z,66.70
2018-09-22T05:04:26.531Z,66.90
2018-09-22T05:06:58.151Z,67.70
2018-09-22T05:09:26.646Z,67.30
2018-09-22T05:11:55.171Z,67.30
2018-09-22T05:14:23.685Z,66.50
2018-09-22T05:16:52.273Z,65.90
2018-09-22T05:19:20.767Z,65.90
2018-09-22T05:21:49.303Z,66.60
2018-09-22T05:24:17.787Z,66.80
2018-09-22T05:26:46.436Z,67.30
2018-09-22T05:29:14.946Z,68.00
2018-09-22T05:31:43.521Z,68.20
2018-09-22T05:34:12.094Z,67.80
2018-09-22T05:36:40.702Z,67.70
2018-09-22T05:39:10.203Z,68.20
2018-09-22T05:41:38.782Z,68.20
2018-09-22T05:44:07.496Z,68.80
2018-09-22T05:46:36.027Z,69.20
2018-09-22T05:49:04.676Z,69.00
2018-09-22T05:51:33.207Z,69.60
2018-09-22T05:54:01.704Z,69.60
2018-09-22T05:56:30.199Z,69.50
2018-09-22T05:58:58.687Z,69.80
2018-09-22T06:01:27.216Z,69.80
2018-09-22T06:03:55.849Z,69.80
2018-09-22T06:06:24.242Z,69.70
2018-09-22T06:08:52.743Z,69.60
2018-09-22T06:11:21.323Z,68.80
2018-09-22T06:13:49.815Z,68.90
2018-09-22T06:16:18.327Z,68.40
2018-09-22T06:18:46.851Z,68.40
2018-09-22T06:21:16.757Z,68.50
2018-09-22T06:23:45.267Z,67.70
2018-09-22T06:26:15.739Z,67.00
2018-09-22T06:28:44.470Z,67.00
2018-09-22T06:31:12.982Z,68.20
2018-09-22T06:33:41.499Z,68.30
2018-09-22T06:36:10.064Z,69.10
2018-09-22T06:38:40.549Z,68.70
2018-09-22T06:41:09.318Z,68.60
2018-09-22T06:43:37.952Z,67.60
2018-09-22T06:46:06.601Z,66.60
2018-09-22T06:48:35.059Z,66.40
2018-09-22T06:51:03.719Z,66.10
2018-09-22T06:53:32.735Z,66.20
2018-09-22T06:56:01.787Z,65.50
2018-09-22T06:58:30.878Z,66.10
2018-09-22T07:01:00.643Z,66.80
2018-09-22T07:03:29.678Z,65.90
2018-09-22T07:05:58.197Z,66.10
2018-09-22T07:08:26.690Z,65.80
2018-09-22T07:10:55.210Z,65.50
2018-09-22T07:13:23.722Z,65.30
2018-09-22T07:15:52.520Z,65.50
2018-09-22T07:18:21.040Z,66.00
2018-09-22T07:20:54.833Z,65.40
2018-09-22T07:23:24.163Z,65.20
2018-09-22T07:25:54.256Z,65.10
2018-09-22T07:28:22.947Z,65.50
2018-09-22T07:30:53.230Z,65.20
2018-09-22T07:33:22.265Z,64.20
2018-09-22T07:35:51.187Z,64.10
2018-09-22T07:38:20.765Z,63.30
2018-09-22T07:40:52.069Z,63.60
2018-09-22T07:43:21.002Z,64.30
2018-09-22T07:45:49.964Z,65.00
2018-09-22T07:48:20.616Z,64.40
2018-09-22T07:50:49.171Z,65.20
2018-09-22T07:53:17.666Z,65.90
2018-09-22T07:55:46.627Z,64.90
2018-09-22T07:58:15.133Z,64.60
2018-09-22T08:00:43.672Z,64.00
2018-09-22T08:03:12.225Z,63.80
2018-09-22T08:05:40.768Z,64.20
2018-09-22T08:08:09.309Z,64.60
2018-09-22T08:10:37.825Z,64.40
2018-09-22T08:13:07.702Z,64.70
2018-09-22T08:15:36.257Z,64.90
2018-09-22T08:18:07.694Z,65.20
2018-09-22T08:20:36.698Z,64.90
2018-09-22T08:23:07.731Z,63.70
2018-09-22T08:25:36.500Z,63.40
2018-09-22T08:28:07.404Z,62.40
2018-09-22T08:30:36.026Z,63.00
2018-09-22T08:33:05.716Z,63.50
2018-09-22T08:35:34.703Z,62.80
2018-09-22T08:38:07.634Z,62.60
2018-09-22T08:40:36.427Z,62.50
2018-09-22T08:43:06.003Z,62.30
2018-09-22T08:45:37.524Z,62.30
2018-09-22T08:48:07.683Z,62.30
2018-09-22T08:50:38.036Z,61.90
2018-09-22T08:53:06.786Z,62.00
2018-09-22T08:55:35.319Z,62.20
2018-09-22T08:58:03.875Z,61.30
2018-09-22T09:00:32.439Z,60.90
2018-09-22T09:03:01.080Z,60.80
2018-09-22T09:05:30.010Z,60.70
2018-09-22T09:07:58.931Z,60.40
2018-09-22T09:10:28.602Z,60.90
2018-09-22T09:12:58.561Z,60.00
2018-09-22T09:15:27.124Z,60.40
2018-09-22T09:17:56.355Z,60.00
2018-09-22T09:20:26.065Z,60.10
2018-09-22T09:22:55.668Z,59.80
2018-09-22T09:25:24.239Z,58.70
2018-09-22T09:27:53.361Z,59.20
2018-09-22T09:30:23.231Z,59.80
2018-09-22T09:32:52.491Z,59.50
2018-09-22T09:35:24.061Z,59.20
2018-09-22T09:37:52.770Z,59.40
2018-09-22T09:40:24.489Z,58.90
2018-09-22T09:42:53.098Z,57.10
2018-09-22T09:45:22.130Z,56.90
2018-09-22T09:47:52.242Z,56.00
2018-09-22T09:50:25.443Z,55.70
2018-09-22T09:52:56.345Z,54.60
2018-09-22T09:55:26.563Z,55.10
2018-09-22T09:57:59.911Z,55.60
2018-09-22T10:00:34.724Z,56.00
2018-09-22T10:03:03.324Z,55.00
2018-09-22T10:05:33.136Z,54.40
2018-09-22T10:08:02.345Z,54.50
2018-09-22T10:10:33.346Z,54.80
2018-09-22T10:13:04.327Z,54.50
2018-09-22T10:15:34.516Z,54.50
2018-09-22T10:18:06.302Z,54.40
2018-09-22T10:20:37.078Z,53.30
2018-09-22T10:23:05.774Z,53.20
2018-09-22T10:25:34.462Z,53.40
2018-09-22T10:28:03.009Z,53.80
2018-09-22T10:30:31.517Z,54.60
2018-09-22T10:33:00.094Z,55.20
2018-09-22T10:35:28.669Z,54.90
2018-09-22T10:37:57.770Z,54.90
2018-09-22T10:40:26.307Z,54.50
2018-09-22T10:42:54.914Z,54.30
2018-09-22T10:45:23.450Z,54.10
2018-09-22T10:47:51.955Z,54.10
2018-09-22T10:50:20.539Z,54.20
2018-09-22T10:52:49.179Z,54.10
2018-09-22T10:55:17.613Z,54.00
2018-09-22T10:57:46.150Z,54.10
2018-09-22T11:00:14.674Z,53.90
2018-09-22T11:02:43.176Z,53.60
2018-09-22T11:05:11.705Z,53.20
2018-09-22T11:07:40.194Z,52.90
2018-09-22T11:10:08.754Z,52.10
2018-09-22T11:12:37.258Z,50.70
2018-09-22T11:15:05.862Z,50.70
2018-09-22T11:17:34.362Z,51.00
2018-09-22T11:20:02.878Z,50.90
2018-09-22T11:22:31.374Z,50.80
2018-09-22T11:24:59.954Z,51.60
2018-09-22T11:27:28.469Z,52.00
2018-09-22T11:29:57.002Z,51.90
2018-09-22T11:32:25.538Z,50.30
2018-09-22T11:34:54.096Z,50.00
2018-09-22T11:37:22.620Z,49.40
2018-09-22T11:39:51.153Z,49.10
2018-09-22T11:42:19.665Z,49.10
2018-09-22T11:44:49.102Z,49.40
2018-09-22T11:47:19.511Z,50.20
2018-09-22T11:49:49.326Z,49.30
2018-09-22T11:52:19.045Z,49.60
2018-09-22T11:54:48.038Z,48.60
2018-09-22T11:57:17.107Z,48.40
2018-09-22T11:59:45.718Z,48.30
2018-09-22T12:02:15.132Z,47.80
2018-09-22T12:04:43.785Z,48.20
2018-09-22T12:07:12.722Z,47.50
2018-09-22T12:09:41.678Z,47.70
2018-09-22T12:12:10.175Z,47.80
2018-09-22T12:14:39.926Z,47.50
2018-09-22T12:17:10.114Z,48.10
2018-09-22T12:19:38.712Z,46.90
2018-09-22T12:22:07.750Z,47.00
2018-09-22T12:24:36.298Z,46.70
2018-09-22T12:27:04.958Z,46.90
2018-09-22T12:29:33.507Z,47.00
2018-09-22T12:32:02.893Z,47.20
2018-09-22T12:34:31.497Z,47.60
2018-09-22T12:37:00.673Z,46.30
2018-09-22T12:39:30.298Z,46.50
2018-09-22T12:41:59.168Z,46.00
2018-09-22T12:44:27.835Z,46.30
2018-09-22T12:46:56.458Z,46.60
2018-09-22T12:49:25.153Z,46.50
2018-09-22T12:51:53.763Z,46.50
2018-09-22T12:54:22.430Z,46.10
2018-09-22T12:56:50.979Z,45.80
2018-09-22T12:59:19.679Z,45.90
2018-09-22T13:01:48.183Z,45.20
2018-09-22T13:04:16.726Z,43.40
2018-09-22T13:06:45.242Z,42.80
2018-09-22T13:09:13.749Z,43.00
2018-09-22T13:11:42.305Z,43.10
2018-09-22T13:14:12.885Z,43.40
2018-09-22T13:16:41.498Z,43.10
2018-09-22T13:19:10.335Z,42.70
2018-09-22T13:21:38.900Z,42.90
2018-09-22T13:24:07.651Z,43.00
2018-09-22T13:26:36.222Z,43.20
2018-09-22T13:29:04.777Z,43.40
2018-09-22T13:31:33.640Z,43.40
2018-09-22T13:34:02.235Z,43.80
2018-09-22T13:36:30.766Z,43.40
2018-09-22T13:38:59.419Z,43.30
2018-09-22T13:41:28.030Z,43.60
2018-09-22T13:43:56.555Z,44.10
2018-09-22T13:46:25.402Z,44.40
2018-09-22T13:48:53.900Z,44.50
2018-09-22T13:51:22.458Z,44.10
2018-09-22T13:53:50.958Z,44.10
2018-09-22T13:56:19.572Z,44.10
2018-09-22T13:58:48.234Z,43.90
2018-09-22T14:01:16.796Z,43.50
2018-09-22T14:03:45.347Z,43.90
2018-09-22T14:06:14.666Z,43.60
2018-09-22T14:08:43.196Z,43.30
2018-09-22T14:11:11.886Z,43.40
2018-09-22T14:13:41.731Z,43.30
2018-09-22T14:16:11.133Z,43.70
2018-09-22T14:18:39.712Z,42.80
2018-09-22T14:21:08.270Z,42.90
2018-09-22T14:23:36.838Z,42.50
2018-09-22T14:26:05.374Z,41.80
2018-09-22T14:28:33.963Z,41.60
2018-09-22T14:31:02.863Z,41.40
2018-09-22T14:33:32.597Z,43.00
2018-09-22T14:36:01.890Z,45.00
2018-09-22T14:38:30.472Z,44.50
2018-09-22T14:40:59.018Z,44.30
2018-09-22T14:43:28.635Z,43.20
2018-09-22T14:45:57.361Z,42.80
2018-09-22T14:48:26.208Z,42.00
2018-09-22T14:50:55.638Z,42.10
2018-09-22T14:53:25.498Z,42.30
2018-09-22T14:55:54.383Z,42.90
2018-09-22T14:58:23.016Z,43.20
2018-09-22T15:00:52.091Z,43.10
2018-09-22T15:03:20.902Z,43.00
2018-09-22T15:05:49.460Z,42.90
2018-09-22T15:08:17.975Z,43.10
2018-09-22T15:10:46.514Z,43.50
2018-09-22T15:13:15.238Z,43.70
2018-09-22T15:15:44.000Z,44.40
2018-09-22T15:18:12.777Z,44.80
2018-09-22T15:20:41.577Z,44.40
2018-09-22T15:23:10.514Z,44.60
2018-09-22T15:25:40.036Z,45.00
2018-09-22T15:28:08.952Z,45.30
2018-09-22T15:30:37.623Z,45.30
2018-09-22T15:33:06.655Z,46.70
2018-09-22T15:35:35.154Z,47.30
2018-09-22T15:38:03.899Z,49.00
2018-09-22T15:40:32.499Z,46.30
2018-09-22T15:43:01.023Z,46.10
2018-09-22T15:45:29.648Z,48.00
2018-09-22T15:47:58.282Z,48.30
2018-09-22T15:50:26.757Z,50.10
2018-09-22T15:52:55.317Z,49.80
2018-09-22T15:55:23.823Z,52.90
2018-09-22T15:57:52.390Z,51.60
2018-09-22T16:00:22.042Z,53.60
2018-09-22T16:02:50.650Z,51.10
2018-09-22T16:05:19.263Z,50.10
2018-09-22T16:07:47.803Z,48.40
2018-09-22T16:10:16.319Z,50.40
2018-09-22T16:12:44.910Z,49.90
2018-09-22T16:15:13.431Z,49.80
2018-09-22T16:17:41.991Z,50.60
2018-09-22T16:20:10.499Z,51.00
2018-09-22T16:22:40.849Z,51.10
2018-09-22T16:25:09.488Z,51.80
2018-09-22T16:27:38.482Z,52.70
2018-09-22T16:30:08.279Z,55.20
2018-09-22T16:32:36.856Z,53.90
2018-09-22T16:35:05.490Z,54.10
2018-09-22T16:37:33.962Z,55.00
2018-09-22T16:40:02.497Z,54.10
2018-09-22T16:42:32.159Z,53.70
2018-09-22T16:45:00.729Z,54.60
2018-09-22T16:47:29.263Z,54.90
2018-09-22T16:49:58.171Z,54.40
2018-09-22T16:52:28.222Z,54.70
2018-09-22T16:55:02.829Z,57.60
2018-09-22T16:57:35.734Z,59.90
2018-09-22T17:00:08.075Z,61.60
2018-09-22T17:02:43.300Z,61.80
2018-09-22T17:05:13.410Z,62.80
2018-09-22T17:07:44.124Z,62.40
2018-09-22T17:10:14.223Z,64.70
2018-09-22T17:12:43.319Z,63.50
2018-09-22T17:15:14.967Z,66.30
2018-09-22T17:17:47.191Z,66.00
2018-09-22T17:20:19.226Z,67.30
2018-09-22T17:22:58.339Z,68.30
2018-09-22T17:25:29.934Z,71.30
2018-09-22T17:27:58.681Z,70.90
2018-09-22T17:30:32.776Z,75.40
2018-09-22T17:33:01.866Z,77.00
2018-09-22T17:35:32.986Z,76.50
2018-09-22T17:38:06.337Z,75.80
2018-09-22T17:40:35.400Z,75.70
2018-09-22T17:43:06.272Z,75.50
2018-09-22T17:45:39.151Z,76.70
2018-09-22T17:48:12.711Z,76.60
2018-09-22T17:50:47.515Z,78.60
2018-09-22T17:53:18.827Z,81.70
2018-09-22T17:55:51.459Z,82.60
2018-09-22T17:58:22.353Z,86.60
2018-09-22T18:00:52.705Z,87.20
2018-09-22T18:03:21.886Z,87.30
2018-09-22T18:05:54.505Z,85.90
2018-09-22T18:08:25.745Z,85.80
2018-09-22T18:10:54.486Z,86.90
2018-09-22T18:13:23.504Z,88.10
2018-09-22T18:15:52.561Z,86.60
2018-09-22T18:18:22.978Z,90.10
2018-09-22T18:20:54.198Z,88.10
2018-09-22T18:23:23.952Z,90.00
2018-09-22T18:25:52.664Z,89.70
2018-09-22T18:28:22.812Z,90.40
2018-09-22T18:30:55.548Z,88.90
2018-09-22T18:33:30.834Z,86.60
2018-09-22T18:36:00.991Z,88.30
2018-09-22T18:38:38.068Z,87.80
2018-09-22T18:41:08.601Z,88.30
2018-09-22T18:43:40.415Z,88.00
2018-09-22T18:46:16.939Z,87.00
2018-09-22T18:48:51.055Z,85.50
2018-09-22T18:51:24.281Z,83.50
2018-09-22T18:54:05.697Z,83.60
2018-09-22T18:56:36.568Z,87.80
2018-09-22T18:59:08.134Z,85.60
2018-09-22T19:01:42.766Z,86.80
2018-09-22T19:04:19.633Z,86.30
2018-09-22T19:06:52.662Z,86.20
2018-09-22T19:09:23.401Z,85.00
2018-09-22T19:11:52.196Z,86.30
2018-09-22T19:14:31.106Z,85.70
2018-09-22T19:17:09.147Z,89.50
2018-09-22T19:19:42.963Z,88.30
2018-09-22T19:22:16.125Z,88.90
2018-09-22T19:24:50.215Z,87.20
2018-09-22T19:27:25.014Z,88.70
2018-09-22T19:29:57.563Z,89.40
2018-09-22T19:32:32.062Z,88.50
2018-09-22T19:35:04.141Z,87.70
2018-09-22T19:38:36.713Z,89.20
2018-09-22T19:41:17.928Z,86.90
2018-09-22T19:43:52.507Z,85.60
2018-09-22T19:46:57.536Z,86.50
2018-09-22T19:49:32.993Z,87.40
2018-09-22T19:52:08.352Z,88.80
2018-09-22T19:54:37.782Z,82.80
2018-09-22T19:57:06.804Z,82.00
2018-09-22T19:59:35.389Z,83.40
2018-09-22T20:02:03.991Z,86.70
2018-09-22T20:04:35.112Z,86.60
2018-09-22T20:07:06.359Z,85.80
2018-09-22T20:09:35.412Z,85.00
2018-09-22T20:12:07.899Z,85.40
2018-09-22T20:14:38.497Z,84.80
2018-09-22T20:17:09.842Z,85.70
2018-09-22T20:19:38.963Z,80.50
2018-09-22T20:22:11.106Z,82.70
2018-09-22T20:24:39.676Z,85.00
2018-09-22T20:27:09.727Z,86.20
2018-09-22T20:29:38.310Z,84.40
2018-09-22T20:32:08.168Z,88.30
2018-09-22T20:34:36.840Z,88.80
2018-09-22T20:37:06.317Z,88.00
2018-09-22T20:39:36.577Z,88.00
2018-09-22T20:42:05.444Z,89.30
2018-09-22T20:44:34.083Z,89.10
2018-09-22T20:47:02.619Z,88.00
2018-09-22T20:49:31.295Z,89.60
2018-09-22T20:52:00.104Z,89.40
2018-09-22T20:54:28.685Z,88.10
2018-09-22T20:56:57.222Z,87.80
2018-09-22T20:59:25.791Z,86.30
2018-09-22T21:01:54.429Z,86.90
2018-09-22T21:04:23.000Z,89.00
2018-09-22T21:06:51.585Z,89.00
2018-09-22T21:09:20.119Z,87.50
2018-09-22T21:11:48.654Z,89.50
2018-09-22T21:14:17.225Z,89.40
2018-09-22T21:16:45.734Z,90.10
2018-09-22T21:19:14.290Z,91.90
2018-09-22T21:21:42.861Z,90.80
2018-09-22T21:24:11.583Z,91.80
2018-09-22T21:26:40.106Z,91.40
2018-09-22T21:29:08.689Z,92.20
2018-09-22T21:31:37.239Z,91.70
2018-09-22T21:34:05.795Z,90.70
2018-09-22T21:36:34.297Z,91.70
2018-09-22T21:39:03.043Z,91.10
2018-09-22T21:41:31.566Z,91.80
2018-09-22T21:44:00.094Z,92.90
2018-09-22T21:46:28.605Z,92.00
2018-09-22T21:48:57.169Z,91.20
2018-09-22T21:51:25.699Z,91.30
2018-09-22T21:53:54.271Z,91.90
2018-09-22T21:56:22.786Z,92.90
